Sunday, November 23, 2014
03:35 UTC
  |  Log In   |  Register Free
Airport Search:

New River Valley Airport
(KPSK)

New River Valley Airport Diagram
No Airport Diagram Available

FAA data valid effective November 13, 2014 - January 08, 2015 (unless otherwise noted).

 
 
 
 
 
 
 
 
 
 
 
 
 
 

Current Aviation Weather for New River Valley Airport (KPSK)

The most recent METAR observation for KPSK was updated at: 0131
METAR Summary (Translated METAR)
KPSK
230115Z AUTO 00000KT 10SM CLR 04/M07 A3032 RMK AO2 T00361067
KBCB
230315Z AUTO 00000KT 10SM CLR M01/M05 A3028 RMK AO2
(13.6 nm NE from KPSK)
KHLX
230315Z AUTO 19009G14KT 10SM CLR 04/M08 A3027 RMK AO2 T00351080
(23.4 nm SW from KPSK)
TAF Summary (Translated TAF)
KBCB
(13.6 nm NE from KPSK)
221725Z 2218/2318 22005KT P6SM BKN250 FM230000 VRB03KT P6SM BKN140 FM231500 15007KT P6SM SCT050 OVC100
  Airport Weather Conditions for KPSK

 Current Weather at PSK
37° F
Fair
West winds at 3.5 mph
PSK NOAA Radar

Pressure: 30.29 in
Humidity: 52%
Wind: West at 3.5 MPH (3 KT)
Dew Point: 20.8°F
Visibility: 10.00 mi


Airport Weather Forecast for KPSK

Translated METAR and TAF for KPSK
Translated METAR for KPSK (0330 UTC 23 November 2014)
found at http://aviationweather.gov/adds/metars/
 
METAR text: KPSK 230315Z AUTO 00000KT 10SM CLR 01/M06 A3028 RMK AO2 T00131056
Conditions at: KPSK (DUBLIN/NEW RIV , VA, US) observed 0315 UTC 23 November 2014
Temperature: 1.3°C (34°F)
Dewpoint: -5.6°C (22°F) [RH = 60%]
Pressure (altimeter): 30.28 inches Hg (1025.5 mb)
Winds: calm
Visibility: 10 or more miles (16+ km)
Ceiling: at least 12,000 feet AGL
Clouds: sky clear below 12,000 feet AGL
Weather: automated observation with no human augmentation;
there may or may not be significant weather present at this time
Translated TAF for KPSK

There is no translated TAF available for this airport

Find All Airport Services Find A Hotel Find A Rental Car Find A Golf Course Find A Restaurant $100 Hamburger



FBO's on the Field
FBO Company Facility Photos Services Transportation Aviation Fuel Prices: Prices include tax
Catering Weather Repair Courtesy Rental Type 100LL JetA JetA+ MOGAS 8087
 
New River Valley Airport

This FBO has not yet been rated
FS:Avfuel
Last Updated: Oct-16
Login to update fuel prices
SS:
Contact New River Valley AirportMore FBO Information
 
Add another FBO Facility Photos Catering Weather Repair Courtesy Rental Type 100LL JetA JetA+ MOGAS 8087
Services Transportation Aviation Fuel Prices: Prices include tax


model-print
model-print
model-print
model-print